createdAt,value
2023-10-04T00:01:39.124Z,19.27
2023-10-04T00:06:42.418Z,21.60
2023-10-04T00:11:44.242Z,19.45
2023-10-04T00:16:46.065Z,16.35
2023-10-04T00:21:47.770Z,17.13
2023-10-04T00:26:49.558Z,18.10
2023-10-04T00:31:51.321Z,16.48
2023-10-04T00:36:54.064Z,16.17
2023-10-04T00:41:57.054Z,15.48
2023-10-04T00:46:59.695Z,17.38
2023-10-04T00:52:03.938Z,15.65
2023-10-04T00:57:07.712Z,15.93
2023-10-04T01:02:09.834Z,21.80
2023-10-04T01:07:11.665Z,16.10
2023-10-04T01:12:13.490Z,14.25
2023-10-04T01:17:15.259Z,12.20
2023-10-04T01:22:16.931Z,15.57
2023-10-04T01:27:18.745Z,11.75
2023-10-04T01:32:23.544Z,12.85
2023-10-04T01:37:25.285Z,14.52
2023-10-04T01:42:27.370Z,15.60
2023-10-04T01:47:29.365Z,12.00
2023-10-04T01:52:31.733Z,15.40
2023-10-04T01:57:35.617Z,15.77
2023-10-04T02:02:40.347Z,16.77
2023-10-04T02:07:42.716Z,14.88
2023-10-04T02:12:44.590Z,12.05
2023-10-04T02:17:46.527Z,14.57
2023-10-04T02:22:48.866Z,15.15
2023-10-04T02:27:50.753Z,12.25
2023-10-04T02:32:52.603Z,15.02
2023-10-04T02:38:00.245Z,12.30
2023-10-04T02:43:02.304Z,13.93
2023-10-04T02:48:10.806Z,15.00
2023-10-04T02:53:18.582Z,14.40
2023-10-04T02:58:21.057Z,12.95
2023-10-04T03:03:26.440Z,15.60
2023-10-04T03:08:28.872Z,13.33
2023-10-04T03:13:33.656Z,10.80
2023-10-04T03:18:38.657Z,12.00
2023-10-04T03:23:43.819Z,14.18
2023-10-04T03:28:45.827Z,13.93
2023-10-04T03:33:50.170Z,13.13
2023-10-04T03:38:52.156Z,15.65
2023-10-04T03:43:56.229Z,12.10
2023-10-04T03:48:59.827Z,13.52
2023-10-04T03:54:06.834Z,12.68
2023-10-04T03:59:09.527Z,12.80
2023-10-04T04:04:16.217Z,12.98
2023-10-04T04:09:18.882Z,13.63
2023-10-04T04:14:20.699Z,10.88
2023-10-04T04:19:27.704Z,15.18
2023-10-04T04:24:29.573Z,11.25
2023-10-04T04:29:31.401Z,11.43
2023-10-04T04:34:33.968Z,12.48
2023-10-04T04:39:40.773Z,10.75
2023-10-04T04:44:45.674Z,10.60
2023-10-04T04:49:49.694Z,14.02
2023-10-04T04:54:56.695Z,9.10
2023-10-04T04:59:58.844Z,9.48
2023-10-04T05:05:01.353Z,18.52
2023-10-04T05:10:04.281Z,12.70
2023-10-04T05:15:22.850Z,15.73
2023-10-04T05:20:26.355Z,21.77
2023-10-04T05:25:29.131Z,21.35
2023-10-04T05:30:31.910Z,16.75
2023-10-04T05:35:38.222Z,16.63
2023-10-04T05:40:44.526Z,18.58
2023-10-04T05:45:49.328Z,15.43
2023-10-04T05:50:51.661Z,22.23
2023-10-04T05:55:54.133Z,14.32
2023-10-04T06:00:57.239Z,13.38
2023-10-04T06:06:00.675Z,12.00
2023-10-04T06:11:03.290Z,14.93
2023-10-04T06:16:06.249Z,11.10
2023-10-04T06:21:08.068Z,11.32
2023-10-04T06:26:09.755Z,18.63
2023-10-04T06:31:12.259Z,13.30
2023-10-04T06:36:14.983Z,12.30
2023-10-04T06:41:17.679Z,22.50
2023-10-04T06:46:19.647Z,23.33
2023-10-04T06:51:21.552Z,19.08
2023-10-04T06:56:23.433Z,15.43
2023-10-04T07:01:25.196Z,14.57
2023-10-04T07:06:26.985Z,11.35
2023-10-04T07:11:28.764Z,13.82
2023-10-04T07:16:30.493Z,20.10
2023-10-04T07:21:32.402Z,14.63
2023-10-04T07:26:37.162Z,13.52
2023-10-04T07:31:39.599Z,10.20
2023-10-04T07:36:43.970Z,9.95
2023-10-04T07:41:46.048Z,12.80
2023-10-04T07:46:47.996Z,10.18
2023-10-04T07:51:50.146Z,21.65
2023-10-04T07:56:51.874Z,6.53
2023-10-04T08:01:53.849Z,9.50
2023-10-04T08:06:55.940Z,10.45
2023-10-04T08:11:58.324Z,6.63
2023-10-04T08:17:00.920Z,6.22
2023-10-04T08:22:04.532Z,10.85
2023-10-04T08:27:06.453Z,5.20
2023-10-04T08:32:08.176Z,10.50
2023-10-04T08:37:09.930Z,6.78
2023-10-04T08:42:11.903Z,6.18
2023-10-04T08:47:14.392Z,4.45
2023-10-04T08:52:22.043Z,4.88
2023-10-04T08:57:24.564Z,5.25
2023-10-04T09:02:27.010Z,4.03
2023-10-04T09:07:30.071Z,5.28
2023-10-04T09:12:41.584Z,6.53
2023-10-04T09:17:57.102Z,3.80
2023-10-04T09:23:15.155Z,5.47
2023-10-04T09:28:17.135Z,9.25
2023-10-04T09:33:30.299Z,4.20
2023-10-04T09:38:33.236Z,4.00
2023-10-04T09:43:39.308Z,4.20
2023-10-04T09:48:46.301Z,3.55
2023-10-04T09:53:48.401Z,7.38
2023-10-04T09:58:54.889Z,4.10
2023-10-04T10:03:58.190Z,3.75
2023-10-04T10:09:04.362Z,5.25
2023-10-04T10:14:11.248Z,6.90
2023-10-04T10:19:14.204Z,4.68
2023-10-04T10:24:16.139Z,4.63
2023-10-04T10:29:22.238Z,3.70
2023-10-04T10:34:24.229Z,5.50
2023-10-04T10:39:29.800Z,4.90
2023-10-04T10:44:35.071Z,2.60
2023-10-04T10:49:49.611Z,4.77
2023-10-04T10:54:59.247Z,6.95
2023-10-04T11:00:13.207Z,3.13
2023-10-04T11:05:17.934Z,6.20
2023-10-04T11:10:24.712Z,5.72
2023-10-04T11:15:28.935Z,6.10
2023-10-04T11:20:33.505Z,5.88
2023-10-04T11:25:37.797Z,6.47
2023-10-04T11:30:40.009Z,4.25
2023-10-04T11:35:45.100Z,3.33
2023-10-04T11:40:51.354Z,5.40
2023-10-04T11:51:05.075Z,3.70
2023-10-04T11:56:09.230Z,3.85
2023-10-04T12:01:13.138Z,3.70
2023-10-04T12:06:17.934Z,2.90
2023-10-04T12:11:24.223Z,16.40
2023-10-04T12:21:29.189Z,4.90
2023-10-04T12:26:32.334Z,5.20
2023-10-04T12:31:34.636Z,7.18
2023-10-04T12:36:51.184Z,12.82
2023-10-04T12:41:57.247Z,7.28
2023-10-04T12:46:59.005Z,3.42
2023-10-04T12:52:01.314Z,3.90
2023-10-04T12:57:03.562Z,11.82
2023-10-04T13:02:06.964Z,5.18
2023-10-04T13:07:08.884Z,4.07
2023-10-04T13:12:10.989Z,5.65
2023-10-04T13:17:12.971Z,5.38
2023-10-04T13:22:14.706Z,3.95
2023-10-04T13:27:16.430Z,5.30
2023-10-04T13:32:20.436Z,4.97
2023-10-04T13:37:22.991Z,7.15
2023-10-04T13:42:29.169Z,4.13
2023-10-04T13:47:31.591Z,5.75
2023-10-04T13:52:33.333Z,7.20
2023-10-04T13:57:35.288Z,3.50
2023-10-04T14:02:37.127Z,6.72
2023-10-04T14:07:39.967Z,6.13
2023-10-04T14:12:41.707Z,3.10
2023-10-04T14:17:43.529Z,2.75
2023-10-04T14:22:45.678Z,4.95
2023-10-04T14:27:47.681Z,5.55
2023-10-04T14:32:50.115Z,8.48
2023-10-04T14:37:52.346Z,7.00
2023-10-04T14:42:58.594Z,4.35
2023-10-04T14:53:02.848Z,4.28
2023-10-04T14:58:04.936Z,3.88
2023-10-04T15:03:07.246Z,3.28
2023-10-04T15:08:10.285Z,6.28
2023-10-04T15:13:12.084Z,3.03
2023-10-04T15:18:14.023Z,4.88
2023-10-04T15:23:17.415Z,4.75
2023-10-04T15:28:19.156Z,6.55
2023-10-04T15:33:21.095Z,3.05
2023-10-04T15:38:22.856Z,4.18
2023-10-04T15:43:24.596Z,4.70
2023-10-04T15:48:26.341Z,4.60
2023-10-04T15:53:28.158Z,6.22
2023-10-04T15:58:29.874Z,7.40
2023-10-04T16:03:32.405Z,4.65
2023-10-04T16:08:36.354Z,6.43
2023-10-04T16:13:38.232Z,3.15
2023-10-04T16:18:40.558Z,4.60
2023-10-04T16:23:42.325Z,3.90
2023-10-04T16:28:44.480Z,5.28
2023-10-04T16:33:46.433Z,3.95
2023-10-04T16:38:48.213Z,4.00
2023-10-04T16:43:49.954Z,5.35
2023-10-04T16:48:52.379Z,4.88
2023-10-04T16:53:55.774Z,4.35
2023-10-04T16:58:57.741Z,6.22
2023-10-04T17:04:00.831Z,3.50
2023-10-04T17:09:03.435Z,8.00
2023-10-04T17:14:06.224Z,7.57
2023-10-04T17:19:08.702Z,5.45
2023-10-04T17:24:11.685Z,2.60
2023-10-04T17:29:14.472Z,3.00
2023-10-04T17:34:17.196Z,6.75
2023-10-04T17:39:20.060Z,6.03
2023-10-04T17:44:23.452Z,4.32
2023-10-04T17:49:28.247Z,7.30
2023-10-04T17:54:31.475Z,7.18
2023-10-04T17:59:37.383Z,3.72
2023-10-04T18:04:40.918Z,6.10
2023-10-04T18:09:45.427Z,5.70
2023-10-04T18:14:48.558Z,4.60
2023-10-04T18:19:53.045Z,5.82
2023-10-04T18:24:56.084Z,7.13
2023-10-04T18:30:00.508Z,7.78
2023-10-04T18:35:03.986Z,5.55
2023-10-04T18:40:10.864Z,6.93
2023-10-04T18:45:14.419Z,5.70
2023-10-04T18:50:23.427Z,6.60
2023-10-04T18:55:26.502Z,8.00
2023-10-04T19:00:31.220Z,6.07
2023-10-04T19:05:38.043Z,6.50
2023-10-04T19:10:42.608Z,6.55
2023-10-04T19:15:46.205Z,5.05
2023-10-04T19:20:48.780Z,4.90
2023-10-04T19:25:52.262Z,7.63
2023-10-04T19:31:00.256Z,4.15
2023-10-04T19:36:04.029Z,5.20
2023-10-04T19:41:07.309Z,6.30
2023-10-04T19:46:10.542Z,7.28
2023-10-04T19:51:13.514Z,4.63
2023-10-04T19:56:17.793Z,3.63
2023-10-04T20:01:20.467Z,5.35
2023-10-04T20:06:24.380Z,6.55
2023-10-04T20:11:27.513Z,3.67
2023-10-04T20:16:30.499Z,5.45
2023-10-04T20:21:33.647Z,5.22
2023-10-04T20:26:36.775Z,4.25
2023-10-04T20:31:39.436Z,4.32
2023-10-04T20:36:41.939Z,6.40
2023-10-04T20:41:43.946Z,5.82
2023-10-04T20:46:46.090Z,5.00
2023-10-04T20:51:50.074Z,5.15
2023-10-04T20:56:52.047Z,4.70
2023-10-04T21:01:53.988Z,6.65
2023-10-04T21:06:55.912Z,6.22
2023-10-04T21:11:57.775Z,3.67
2023-10-04T21:17:00.754Z,5.32
2023-10-04T21:22:03.488Z,7.20
2023-10-04T21:27:05.219Z,5.30
2023-10-04T21:32:07.178Z,6.72
2023-10-04T21:37:11.473Z,8.73
2023-10-04T21:42:13.809Z,10.70
2023-10-04T21:47:28.083Z,9.82
2023-10-04T21:52:32.810Z,10.13
2023-10-04T21:57:34.752Z,8.82
2023-10-04T22:02:37.287Z,8.40
2023-10-04T22:07:39.420Z,7.82
2023-10-04T22:12:41.658Z,5.68
2023-10-04T22:17:43.654Z,5.10
2023-10-04T22:22:45.484Z,4.13
2023-10-04T22:27:50.713Z,4.80
2023-10-04T22:32:52.942Z,4.60
2023-10-04T22:37:54.767Z,5.55
2023-10-04T22:43:01.454Z,6.90
2023-10-04T22:48:04.854Z,5.30
2023-10-04T22:53:06.747Z,3.50
2023-10-04T22:58:08.561Z,4.32
2023-10-04T23:03:11.475Z,5.10
2023-10-04T23:08:13.882Z,4.63
2023-10-04T23:13:18.002Z,6.38
2023-10-04T23:18:19.772Z,5.65
2023-10-04T23:23:21.594Z,5.00
2023-10-04T23:28:24.546Z,4.55
2023-10-04T23:33:27.918Z,4.70
2023-10-04T23:38:34.858Z,3.80
2023-10-04T23:43:41.937Z,3.88
2023-10-04T23:48:45.676Z,3.47
2023-10-04T23:53:47.380Z,5.72
2023-10-04T23:58:49.735Z,3.63
